チタ の空港の天気 - METARとTAF

チタ・カダラ空港 ( UIAA / HTA ) - ロシア チタ
飛行場実況気象(Metar)
観測時間08/23 01:30 YAKT (08/22 16:30 UTC)
風向・風速西 2m/s
視程10km以上
天気現象
なし
気温9℃
湿度93%
気圧1017hPa
METARUIAA 221630Z AUTO 27002MPS 9999 NCD 09/08 Q1017 RMK QFE704/0939
過去の天気等 Google飛行場航空写真 Wunderground天気予報

過去48時間のMETAR

飛行場予報(TAF)
発表時間: 8/22 23:00 YAKT (8/22 14:00 UTC)
予報対象時間: 23日0時 YAKT ~ 24日0時 YAKT
風向・風速南南西 3m/s
視程10km以上
なし
23日2時 YAKT ~ 23日4時 YAKT に徐々に
視程500m
天気現象
全天を覆う雲 鉛直視程 30m
23日4時 YAKT ~ 23日10時 YAKT に一時的に
視程1400m
天気現象もや
全天の8割程度の雲 雲底高度 180m
23日10時 YAKT ~ 23日12時 YAKT に徐々に
視程10km以上
天気現象運行に影響にある天気現象が終了
なし
TAF UIAA 221400Z 2215/2315 20003MPS 9999 NSC
BECMG 2217/2219 0500 FG VV001
TEMPO 2219/2301 1400 BR BKN006
BECMG 2301/2303 9999 NSW NSC